CmaCGm Ohio — 9HA4132 — position and weather

sailwx.info

Track history (hours):
 
Tides and Currents Weather Stations Pressure Air Temp Water Temp Dewpoint Dewpoint Depression Visibility Wind Speed Wind Dir Waves Ship Positions

CmaCGm Ohio

Last reported at 2017-Sep-16 05:04 UTC. Time now 2017-Sep-25 11:23 UTC.
Position N 21°14' W 112°53'.
Warning: this ship's position is 9 days out of date.

Length 300 m; draft 13.2 m.

Type: Ship (hazmat cat A). MMSI: 249167000.

Date/timePositionNaut miles runAvg speedWind from/ knotsBaromVisibWave heightAir tempDewpointWater temp
2017-Sep-16 05:04N 21°14' W 112°53'120.3
2017-Sep-16 05:00N 21°15' W 112°54'2820.3
2017-Sep-16 03:36N 21°41' W 113°05'220.6
2017-Sep-16 03:30N 21°43' W 113°06'5320.4
2017-Sep-16 00:53N 22°33' W 113°28'3320.7
2017-Sep-15 23:19N 23°03' W 113°42'721.0
2017-Sep-15 23:00N 23°09' W 113°45'1021.2
2017-Sep-15 22:30N 23°19' W 113°49'1121.3
2017-Sep-15 21:59N 23°29' W 113°54'1121.4
2017-Sep-15 21:29N 23°39' W 113°58'1021.3
2017-Sep-15 21:00N 23°48' W 114°03'1020.7
2017-Sep-15 20:30N 23°58' W 114°07'1020.7
2017-Sep-15 20:00N 24°07' W 114°12'  
2017-Sep-13 09:41N 31°40' W 117°03'319.0
2017-Sep-13 09:30N 31°38' W 117°07'1419.0
2017-Sep-13 08:46N 31°32' W 117°22'518.8
2017-Sep-13 08:31N 31°30' W 117°27'1018.9
2017-Sep-13 08:00N 31°26' W 117°37'918.8
2017-Sep-13 07:31N 31°22' W 117°47'918.6
2017-Sep-13 07:00N 31°18' W 117°57'918.8
2017-Sep-13 06:30N 31°14' W 118°07'1019.0
2017-Sep-13 06:00N 31°10' W 118°17'918.6
2017-Sep-13 05:30N 31°06' W 118°27'918.7
2017-Sep-13 05:00N 31°04' W 118°38'918.7
2017-Sep-13 04:30N 31°02' W 118°48'918.6
2017-Sep-13 04:01N 30°60' W 118°59'1118.7
2017-Sep-13 03:25N 30°57' W 119°12'718.4
2017-Sep-13 03:00N 30°56' W 119°20'1219.0
2017-Sep-13 02:23N 30°53' W 119°34'818.9
2017-Sep-13 01:56N 30°52' W 119°43'1019.2
2017-Sep-13 01:25N 30°49' W 119°55'  
Track history (hours):
 
Tides and Currents Weather Stations Pressure Air Temp Water Temp Dewpoint Dewpoint Depression Visibility Wind Speed Wind Dir Waves Ship Positions

CmaCGm Ohio

Last reported at 2017-Sep-16 05:04 UTC. Time now 2017-Sep-25 11:23 UTC.
Position N 21°14' W 112°53'.
Warning: this ship's position is 9 days out of date.

Length 300 m; draft 13.2 m.

Type: Ship (hazmat cat A). MMSI: 249167000.

Date/timePositionNaut miles runAvg speedWind from/ knotsBaromVisibWave heightAir tempDewpointWater temp
2017-Sep-16 05:04N 21°14' W 112°53'120.3
2017-Sep-16 05:00N 21°15' W 112°54'2820.3
2017-Sep-16 03:36N 21°41' W 113°05'220.6
2017-Sep-16 03:30N 21°43' W 113°06'5320.4
2017-Sep-16 00:53N 22°33' W 113°28'3320.7
2017-Sep-15 23:19N 23°03' W 113°42'721.0
2017-Sep-15 23:00N 23°09' W 113°45'1021.2
2017-Sep-15 22:30N 23°19' W 113°49'1121.3
2017-Sep-15 21:59N 23°29' W 113°54'1121.4
2017-Sep-15 21:29N 23°39' W 113°58'1021.3
2017-Sep-15 21:00N 23°48' W 114°03'1020.7
2017-Sep-15 20:30N 23°58' W 114°07'1020.7
2017-Sep-15 20:00N 24°07' W 114°12'  
2017-Sep-13 09:41N 31°40' W 117°03'319.0
2017-Sep-13 09:30N 31°38' W 117°07'1419.0
2017-Sep-13 08:46N 31°32' W 117°22'518.8
2017-Sep-13 08:31N 31°30' W 117°27'1018.9
2017-Sep-13 08:00N 31°26' W 117°37'918.8
2017-Sep-13 07:31N 31°22' W 117°47'918.6
2017-Sep-13 07:00N 31°18' W 117°57'918.8
2017-Sep-13 06:30N 31°14' W 118°07'1019.0
2017-Sep-13 06:00N 31°10' W 118°17'918.6
2017-Sep-13 05:30N 31°06' W 118°27'918.7
2017-Sep-13 05:00N 31°04' W 118°38'918.7
2017-Sep-13 04:30N 31°02' W 118°48'918.6
2017-Sep-13 04:01N 30°60' W 118°59'1118.7
2017-Sep-13 03:25N 30°57' W 119°12'718.4
2017-Sep-13 03:00N 30°56' W 119°20'1219.0
2017-Sep-13 02:23N 30°53' W 119°34'818.9
2017-Sep-13 01:56N 30°52' W 119°43'1019.2
2017-Sep-13 01:25N 30°49' W 119°55'  

Dump ship's entire track history